Time;durP1;ratioP1;P1;durP2;ratioP2;P2;SDS_P1;SDS_P2;PMS_P1;PMS_P2;Temp;Humidity;BMP_temperature;BMP_pressure;BME280_temperature;BME280_humidity;BME280_pressure;Samples;Min_cycle;Max_cycle;Signal;HPM_P1;HPM_P2
2023/11/06 00:00:50;;;;;;;1.35;1.10;;;;;;;8.15;100.00;96459.84;6099343;19;20018;-75
2023/11/06 00:02:51;;;;;;;1.10;1.00;;;;;;;8.15;100.00;96472.84;6100048;19;20028;-74
2023/11/06 00:04:52;;;;;;;2.03;1.10;;;;;;;8.19;100.00;96470.81;6100280;19;20620;-74
2023/11/06 00:06:52;;;;;;;2.60;1.10;;;;;;;8.18;100.00;96477.50;6099664;19;20006;-74
2023/11/06 00:08:54;;;;;;;1.65;1.42;;;;;;;8.21;100.00;96479.47;6099178;19;20013;-74
2023/11/06 00:10:54;;;;;;;2.70;1.10;;;;;;;8.16;100.00;96466.91;6100637;19;20026;-74
2023/11/06 00:12:54;;;;;;;3.63;1.17;;;;;;;8.18;100.00;96483.81;6098579;19;19999;-74
2023/11/06 00:14:55;;;;;;;2.03;1.00;;;;;;;8.18;100.00;96472.00;6099152;19;20083;-74
2023/11/06 00:16:55;;;;;;;5.80;1.33;;;;;;;8.22;100.00;96483.78;6100540;19;20003;-74
2023/11/06 00:18:55;;;;;;;1.25;1.00;;;;;;;8.25;100.00;96479.41;6100425;19;20038;-74
2023/11/06 00:20:58;;;;;;;2.97;1.10;;;;;;;8.26;100.00;96487.25;6100076;19;20436;-74
2023/11/06 00:22:58;;;;;;;1.25;1.02;;;;;;;8.26;100.00;96500.25;6099226;19;20015;-74
2023/11/06 00:24:59;;;;;;;3.97;1.17;;;;;;;8.32;100.00;96493.13;6099307;19;20011;-74
2023/11/06 00:26:59;;;;;;;1.00;0.90;;;;;;;8.30;100.00;96499.03;6099473;19;20398;-74
2023/11/06 00:29:00;;;;;;;2.95;1.30;;;;;;;8.28;100.00;96512.44;6094185;19;20346;-74
2023/11/06 00:31:00;;;;;;;3.35;1.02;;;;;;;8.25;100.00;96493.97;6092258;19;20239;-74
2023/11/06 00:33:01;;;;;;;3.03;0.90;;;;;;;8.31;100.00;96505.31;6092401;19;20336;-74
2023/11/06 00:35:01;;;;;;;2.60;0.90;;;;;;;8.35;100.00;96509.63;6091485;19;20016;-74
2023/11/06 00:37:03;;;;;;;1.88;1.00;;;;;;;8.31;100.00;96508.88;6092113;19;20675;-74
2023/11/06 00:39:03;;;;;;;1.05;0.93;;;;;;;8.37;100.00;96517.50;6093192;19;20003;-74
2023/11/06 00:41:04;;;;;;;3.80;1.15;;;;;;;8.34;100.00;96512.75;6092264;19;20010;-74
2023/11/06 00:43:04;;;;;;;1.25;0.90;;;;;;;8.34;100.00;96512.75;6089585;19;20583;-74
2023/11/06 00:45:05;;;;;;;3.60;1.10;;;;;;;8.29;100.00;96519.53;6091077;19;20010;-74
2023/11/06 00:47:05;;;;;;;2.58;0.95;;;;;;;8.33;100.00;96511.97;6092482;19;20258;-74
2023/11/06 00:49:06;;;;;;;2.85;0.90;;;;;;;8.28;100.00;96520.72;6091878;19;20002;-74
2023/11/06 00:51:06;;;;;;;1.85;0.80;;;;;;;8.27;100.00;96502.59;6092217;19;20101;-74
2023/11/06 00:53:07;;;;;;;5.82;1.88;;;;;;;8.29;100.00;96516.00;6092015;19;19999;-74
2023/11/06 00:55:08;;;;;;;2.63;0.90;;;;;;;8.29;100.00;96510.47;6091001;19;20326;-74
2023/11/06 00:57:09;;;;;;;3.65;1.40;;;;;;;8.26;100.00;96506.53;6093049;19;20080;-74
2023/11/06 00:59:10;;;;;;;2.15;1.13;;;;;;;8.25;100.00;96509.72;6091547;19;20086;-74
2023/11/06 01:01:13;;;;;;;2.03;1.00;;;;;;;8.21;100.00;96509.00;6092552;19;20563;-74
2023/11/06 01:03:13;;;;;;;;;;;;;;;8.18;100.00;96508.59;6092671;19;19999;-74
2023/11/06 01:05:14;;;;;;;6.55;1.27;;;;;;;8.12;100.00;96523.25;6092438;19;19914;-73
2023/11/06 01:07:14;;;;;;;1.58;0.85;;;;;;;8.04;100.00;96536.31;6098091;19;20007;-74
2023/11/06 01:09:16;;;;;;;1.10;0.80;;;;;;;8.02;100.00;96533.16;6097832;19;20260;-74
2023/11/06 01:11:17;;;;;;;1.58;1.10;;;;;;;8.03;100.00;96553.25;6097564;19;20007;-74
2023/11/06 01:13:18;;;;;;;1.50;0.90;;;;;;;8.02;100.00;96552.44;6097004;19;20470;-74
2023/11/06 01:15:19;;;;;;;0.80;0.75;;;;;;;8.04;100.00;96555.59;6094757;19;20265;-74
2023/11/06 01:17:19;;;;;;;2.88;0.95;;;;;;;8.05;100.00;96559.91;6097060;19;20006;-74
2023/11/06 01:19:20;;;;;;;3.53;1.10;;;;;;;8.10;100.00;96570.47;6097024;19;20452;-74
2023/11/06 01:21:20;;;;;;;2.80;1.05;;;;;;;8.10;100.00;96581.47;6097431;19;20006;-74
2023/11/06 01:23:21;;;;;;;2.03;1.17;;;;;;;8.15;100.00;96585.78;6096714;19;20010;-74
2023/11/06 01:25:21;;;;;;;2.50;0.90;;;;;;;8.19;100.00;96578.25;6096341;19;20011;-74
2023/11/06 01:27:21;;;;;;;3.42;1.25;;;;;;;8.22;100.00;96571.16;6097114;19;20312;-74
2023/11/06 01:29:22;;;;;;;2.70;1.10;;;;;;;8.28;100.00;96584.09;6099925;19;20014;-74
2023/11/06 01:31:22;;;;;;;1.80;1.00;;;;;;;8.29;100.00;96591.16;6103554;19;20007;-74
2023/11/06 01:33:23;;;;;;;1.55;0.80;;;;;;;8.29;100.00;96584.88;6103572;19;20026;-74
2023/11/06 01:35:25;;;;;;;2.95;1.13;;;;;;;8.32;100.00;96586.78;6101915;19;20028;-74
2023/11/06 01:37:29;;;;;;;;;;;;;;;8.32;100.00;96592.31;6104044;19;20346;-74
2023/11/06 01:39:30;;;;;;;2.15;0.88;;;;;;;8.32;100.00;96581.28;6103477;19;20301;-74
2023/11/06 01:41:31;;;;;;;1.20;0.88;;;;;;;8.31;100.00;96580.50;6103580;19;20003;-74
2023/11/06 01:43:31;;;;;;;3.78;1.08;;;;;;;8.30;100.00;96589.19;6102372;19;20121;-74
2023/11/06 01:45:36;;;;;;;1.67;0.98;;;;;;;8.26;100.00;96586.44;6101967;19;19995;-74
2023/11/06 01:47:36;;;;;;;1.90;1.00;;;;;;;8.33;100.00;96571.81;6103588;19;20408;-74
2023/11/06 01:49:37;;;;;;;2.15;0.90;;;;;;;8.29;100.00;96580.13;6103306;19;20013;-74
2023/11/06 01:51:40;;;;;;;3.83;1.17;;;;;;;8.33;100.00;96582.84;6103999;19;20382;-74
2023/11/06 01:53:42;;;;;;;;;;;;;;;8.35;100.00;96586.00;6104515;19;20502;-74
2023/11/06 01:55:43;;;;;;;3.53;1.55;;;;;;;8.26;100.00;96588.41;6101210;19;20426;-74
2023/11/06 01:57:44;;;;;;;4.38;1.10;;;;;;;8.24;100.00;96585.28;6100501;19;20005;-74
2023/11/06 01:59:45;;;;;;;2.78;0.90;;;;;;;8.24;100.00;96586.06;6103524;19;20306;-74
2023/11/06 02:01:47;;;;;;;1.63;0.90;;;;;;;8.22;100.00;96596.72;6102759;19;20011;-74
2023/11/06 02:03:48;;;;;;;3.55;1.15;;;;;;;8.08;100.00;96578.34;6103619;19;20014;-74
2023/11/06 02:05:48;;;;;;;1.55;0.90;;;;;;;8.20;100.00;96598.34;6102009;19;20085;-74
2023/11/06 02:07:49;;;;;;;2.05;1.10;;;;;;;8.18;100.00;96596.75;6102430;19;20007;-73
2023/11/06 02:09:49;;;;;;;2.90;1.17;;;;;;;8.16;100.00;96599.13;6103442;19;20018;-73
2023/11/06 02:11:50;;;;;;;1.75;1.20;;;;;;;8.13;100.00;96610.19;6101845;19;20006;-74
2023/11/06 02:13:50;;;;;;;1.52;0.90;;;;;;;8.11;100.00;96607.06;6103130;19;20481;-74
2023/11/06 02:15:51;;;;;;;2.67;1.15;;;;;;;8.12;100.00;96605.88;6100414;19;20007;-74
2023/11/06 02:17:51;;;;;;;3.05;1.42;;;;;;;8.03;100.00;96603.59;6101113;19;20007;-74
2023/11/06 02:19:52;;;;;;;3.22;0.85;;;;;;;8.06;100.00;96613.78;6103000;19;20038;-74
2023/11/06 02:21:54;;;;;;;4.07;1.25;;;;;;;8.10;100.00;96622.78;6101954;19;20005;-74
2023/11/06 02:23:56;;;;;;;4.60;1.10;;;;;;;8.16;100.00;96626.69;6102645;19;20488;-74
2023/11/06 02:25:56;;;;;;;4.35;1.20;;;;;;;8.13;100.00;96632.22;6100435;19;20006;-74
2023/11/06 02:27:57;;;;;;;3.22;1.00;;;;;;;8.11;100.00;96618.88;6102394;19;20948;-74
2023/11/06 02:29:57;;;;;;;3.60;1.02;;;;;;;8.10;100.00;96628.28;6102155;19;20017;-74
2023/11/06 02:31:57;;;;;;;3.45;1.00;;;;;;;8.09;100.00;96640.50;6101916;19;20003;-74
2023/11/06 02:33:58;;;;;;;5.38;1.30;;;;;;;8.05;100.00;96630.72;6102684;19;20402;-74
2023/11/06 02:35:58;;;;;;;2.70;1.00;;;;;;;8.10;100.00;96642.06;6100938;19;20102;-74
2023/11/06 02:37:58;;;;;;;2.70;1.10;;;;;;;8.12;100.00;96650.72;6101768;19;20343;-74
2023/11/06 02:39:59;;;;;;;3.63;1.05;;;;;;;8.10;100.00;96652.31;6102529;19;20010;-74
2023/11/06 02:42:03;;;;;;;2.35;0.90;;;;;;;8.09;100.00;96648.00;6101576;19;20030;-74
2023/11/06 02:44:04;;;;;;;2.17;0.93;;;;;;;8.08;100.00;96655.47;6102032;19;20007;-73
2023/11/06 02:46:04;;;;;;;2.63;1.20;;;;;;;8.11;100.00;96662.16;6099876;19;20262;-74
2023/11/06 02:48:05;;;;;;;2.85;1.02;;;;;;;8.09;100.00;96642.47;6099840;19;20011;-74
2023/11/06 02:50:06;;;;;;;2.13;1.10;;;;;;;8.07;100.00;96656.66;6102088;19;20534;-74
2023/11/06 02:52:06;;;;;;;2.13;1.00;;;;;;;8.05;100.00;96667.31;6101356;19;19998;-74
2023/11/06 02:54:07;;;;;;;3.38;1.35;;;;;;;8.01;100.00;96671.28;6102313;19;20010;-74
2023/11/06 02:56:07;;;;;;;3.17;0.90;;;;;;;8.15;100.00;96671.94;6099852;19;20010;-73
2023/11/06 02:58:08;;;;;;;1.75;1.00;;;;;;;8.12;100.00;96675.53;6102024;19;19995;-74
2023/11/06 03:00:11;;;;;;;3.47;1.00;;;;;;;8.18;100.00;96668.38;6102152;19;20001;-74
2023/11/06 03:02:12;;;;;;;2.33;0.93;;;;;;;8.16;100.00;96684.53;6100211;19;20014;-74
2023/11/06 03:04:13;;;;;;;2.10;0.82;;;;;;;8.13;100.00;96681.81;6101666;19;20010;-74
2023/11/06 03:06:13;;;;;;;1.38;1.02;;;;;;;8.12;100.00;96686.53;6100246;19;19998;-74
2023/11/06 03:08:13;;;;;;;3.42;1.00;;;;;;;8.21;100.00;96691.59;6101837;19;20011;-74
2023/11/06 03:10:14;;;;;;;2.28;0.93;;;;;;;8.30;100.00;96683.66;6102252;19;20010;-74
2023/11/06 03:12:14;;;;;;;2.35;0.88;;;;;;;8.28;100.00;96683.28;6101159;19;20037;-74
2023/11/06 03:14:15;;;;;;;2.17;0.98;;;;;;;8.27;100.00;96684.44;6101393;19;20078;-74
2023/11/06 03:16:18;;;;;;;4.03;0.90;;;;;;;8.33;100.00;96682.03;6099962;19;20021;-74
2023/11/06 03:18:19;;;;;;;4.82;1.50;;;;;;;8.37;100.00;96680.09;6101992;19;20086;-73
2023/11/06 03:20:19;;;;;;;2.83;0.90;;;;;;;8.40;100.00;96690.28;6101216;19;20019;-74
2023/11/06 03:22:19;;;;;;;1.70;1.00;;;;;;;8.39;100.00;96689.50;6098978;19;20011;-74
2023/11/06 03:24:20;;;;;;;2.83;1.13;;;;;;;8.40;100.00;96715.88;6101339;19;20014;-74
2023/11/06 03:26:21;;;;;;;2.13;0.90;;;;;;;8.38;100.00;96726.50;6100048;19;22201;-74
2023/11/06 03:28:21;;;;;;;3.75;1.10;;;;;;;8.37;100.00;96716.69;6099811;19;20053;-74
2023/11/06 03:30:22;;;;;;;1.50;1.00;;;;;;;8.41;100.00;96719.41;6099328;19;20062;-74
2023/11/06 03:32:22;;;;;;;3.00;1.25;;;;;;;8.35;100.00;96719.03;6099586;19;20730;-74
2023/11/06 03:34:23;;;;;;;2.40;1.00;;;;;;;8.32;100.00;96722.59;6100788;19;20010;-74
2023/11/06 03:36:24;;;;;;;2.92;1.10;;;;;;;8.31;100.00;96723.78;6100039;19;20418;-74
2023/11/06 03:38:24;;;;;;;1.85;1.35;;;;;;;8.25;100.00;96730.13;6100471;19;20535;-74
2023/11/06 03:40:24;;;;;;;2.72;1.02;;;;;;;8.21;100.00;96732.91;6099563;19;20013;-74
2023/11/06 03:42:25;;;;;;;1.70;0.80;;;;;;;8.17;100.00;96727.41;6100019;19;20336;-74
2023/11/06 03:44:26;;;;;;;3.80;1.00;;;;;;;8.13;100.00;96721.16;6100195;19;20567;-74
2023/11/06 03:46:26;;;;;;;1.52;0.95;;;;;;;8.13;100.00;96717.63;6100026;19;20014;-74
2023/11/06 03:48:26;;;;;;;2.78;0.93;;;;;;;8.18;100.00;96730.94;6100044;19;20407;-74
2023/11/06 03:50:27;;;;;;;2.67;1.00;;;;;;;8.14;100.00;96706.19;6098869;19;20006;-74
2023/11/06 03:52:27;;;;;;;2.35;0.95;;;;;;;8.11;100.00;96718.03;6098263;19;20035;-74
2023/11/06 03:54:27;;;;;;;2.28;1.20;;;;;;;8.06;100.00;96709.41;6099324;19;20015;-74
2023/11/06 03:56:28;;;;;;;2.53;1.30;;;;;;;8.01;100.00;96727.13;6099017;19;20325;-74
2023/11/06 03:58:28;;;;;;;2.63;1.25;;;;;;;7.95;100.00;96741.75;6100533;19;20474;-74
2023/11/06 04:00:28;;;;;;;6.03;1.40;;;;;;;7.93;100.00;96733.88;6098767;19;20605;-74
2023/11/06 04:02:29;;;;;;;1.67;0.90;;;;;;;7.97;100.00;96736.63;6098856;19;20011;-74
2023/11/06 04:04:29;;;;;;;1.10;0.98;;;;;;;8.00;100.00;96730.28;6099924;19;20519;-74
2023/11/06 04:06:30;;;;;;;3.25;1.50;;;;;;;8.05;100.00;96749.94;6096387;19;20022;-74
2023/11/06 04:08:33;;;;;;;2.28;1.00;;;;;;;8.10;100.00;96745.97;6098979;19;20026;-74
2023/11/06 04:10:33;;;;;;;4.45;1.33;;;;;;;8.02;100.00;96736.16;6099820;19;20003;-74
2023/11/06 04:12:33;;;;;;;3.78;1.23;;;;;;;7.99;100.00;96740.53;6099625;19;20615;-74
2023/11/06 04:14:34;;;;;;;1.17;1.05;;;;;;;8.01;100.00;96734.59;6098052;19;20396;-74
2023/11/06 04:16:34;;;;;;;1.08;0.98;;;;;;;8.01;100.00;96743.66;6098459;19;20463;-74
2023/11/06 04:18:36;;;;;;;2.92;1.10;;;;;;;7.99;100.00;96743.28;6099320;19;20007;-74
2023/11/06 04:20:36;;;;;;;2.33;1.40;;;;;;;8.00;100.00;96757.84;6099725;19;20006;-74
2023/11/06 04:22:37;;;;;;;1.75;1.08;;;;;;;7.97;100.00;96747.63;6099041;19;20007;-74
2023/11/06 04:24:37;;;;;;;1.70;1.20;;;;;;;8.05;100.00;96749.94;6099855;19;20010;-74
2023/11/06 04:26:37;;;;;;;2.15;1.10;;;;;;;8.08;100.00;96746.38;6098806;19;20015;-74
2023/11/06 04:28:41;;;;;;;3.28;1.35;;;;;;;8.07;100.00;96750.31;6090557;19;20006;-74
2023/11/06 04:30:43;;;;;;;2.30;1.20;;;;;;;8.11;100.00;96740.06;6095202;19;20006;-74
2023/11/06 04:32:43;;;;;;;5.82;1.52;;;;;;;8.08;100.00;96753.84;6096820;19;20015;-74
2023/11/06 04:34:43;;;;;;;2.50;1.50;;;;;;;8.13;100.00;96748.72;6095017;19;20014;-73
2023/11/06 04:36:44;;;;;;;3.03;1.02;;;;;;;8.12;100.00;96749.13;6095122;19;20086;-74
2023/11/06 04:38:44;;;;;;;2.97;1.20;;;;;;;8.11;100.00;96736.53;6095711;19;20025;-74
2023/11/06 04:40:45;;;;;;;1.65;1.10;;;;;;;8.06;100.00;96734.97;6098724;19;20014;-74
2023/11/06 04:42:46;;;;;;;3.10;1.35;;;;;;;8.11;100.00;96744.78;6102538;19;20022;-74
2023/11/06 04:44:47;;;;;;;1.77;1.10;;;;;;;8.06;100.00;96740.50;6101464;19;20011;-75
2023/11/06 04:46:47;;;;;;;4.47;1.30;;;;;;;8.01;100.00;96745.63;6103390;19;20417;-74
2023/11/06 04:48:48;;;;;;;4.75;1.15;;;;;;;7.98;100.00;96747.22;6103112;19;20384;-74
2023/11/06 04:50:48;;;;;;;2.20;1.13;;;;;;;8.01;100.00;96745.63;6104449;19;20009;-74
2023/11/06 04:52:48;;;;;;;1.92;1.20;;;;;;;8.00;100.00;96750.34;6103130;19;20082;-74
2023/11/06 04:54:49;;;;;;;3.25;1.13;;;;;;;8.00;100.00;96747.59;6105177;19;20019;-74
2023/11/06 04:56:49;;;;;;;5.10;1.10;;;;;;;7.93;100.00;96755.91;6103941;19;20021;-74
2023/11/06 04:58:50;;;;;;;4.00;1.30;;;;;;;8.01;100.00;96764.91;6105459;19;20003;-74
2023/11/06 05:00:50;;;;;;;5.47;1.33;;;;;;;7.96;100.00;96765.34;6105539;19;20011;-74
2023/11/06 05:02:51;;;;;;;1.75;1.10;;;;;;;7.89;100.00;96768.91;6104998;19;20013;-74
2023/11/06 05:04:51;;;;;;;5.65;1.10;;;;;;;7.84;100.00;96761.06;6104659;19;20038;-74
2023/11/06 05:06:52;;;;;;;7.15;1.35;;;;;;;7.87;100.00;96774.06;6103388;19;20010;-74
2023/11/06 05:08:53;;;;;;;3.13;1.30;;;;;;;7.87;100.00;96760.28;6104679;19;20419;-74
2023/11/06 05:10:53;;;;;;;2.90;1.20;;;;;;;7.92;100.00;96768.09;6104463;19;20014;-74
2023/11/06 05:12:54;;;;;;;5.95;1.45;;;;;;;7.92;100.00;96770.06;6105146;19;20683;-74
2023/11/06 05:14:54;;;;;;;3.55;1.23;;;;;;;7.87;100.00;96761.06;6103696;19;20023;-74
2023/11/06 05:16:54;;;;;;;3.05;1.20;;;;;;;7.92;100.00;96778.34;6105618;19;20007;-74
2023/11/06 05:18:55;;;;;;;4.55;1.38;;;;;;;8.00;100.00;96777.09;6104326;19;20011;-74
2023/11/06 05:20:55;;;;;;;2.70;0.98;;;;;;;8.01;100.00;96782.22;6104359;19;20013;-74
2023/11/06 05:22:55;;;;;;;2.83;1.25;;;;;;;7.95;100.00;96786.59;6104277;19;20335;-74
2023/11/06 05:24:56;;;;;;;1.25;0.90;;;;;;;7.95;100.00;96785.81;6103323;19;20299;-74
2023/11/06 05:26:56;;;;;;;4.82;1.10;;;;;;;8.02;100.00;96794.78;6105349;19;20002;-74
2023/11/06 05:28:58;;;;;;;2.42;1.27;;;;;;;8.06;100.00;96811.31;6100061;19;20621;-74
2023/11/06 05:30:58;;;;;;;1.38;0.70;;;;;;;8.11;100.00;96797.13;6097485;19;20026;-74
2023/11/06 05:32:58;;;;;;;1.42;0.90;;;;;;;8.02;100.00;96797.53;6097141;19;20330;-74
2023/11/06 05:35:00;;;;;;;2.13;1.00;;;;;;;7.99;100.00;96805.84;6095744;19;20366;-74
2023/11/06 05:37:00;;;;;;;2.67;1.02;;;;;;;8.00;100.00;96808.19;6097852;19;20018;-74
2023/11/06 05:39:00;;;;;;;3.00;1.10;;;;;;;8.06;100.00;96819.59;6097184;19;20085;-74
2023/11/06 05:41:01;;;;;;;3.25;1.90;;;;;;;8.12;100.00;96815.22;6097570;19;20471;-74
2023/11/06 05:43:01;;;;;;;1.85;1.15;;;;;;;8.17;100.00;96812.03;6097088;19;20014;-74
2023/11/06 05:45:02;;;;;;;4.95;1.70;;;;;;;8.25;100.00;96829.31;6096605;19;20172;-74
2023/11/06 05:47:03;;;;;;;2.67;1.38;;;;;;;8.29;100.00;96835.59;6097624;19;20465;-74
2023/11/06 05:49:03;;;;;;;2.38;1.20;;;;;;;8.25;100.00;96834.81;6097805;19;20013;-74
2023/11/06 05:51:04;;;;;;;3.10;1.50;;;;;;;8.25;100.00;96832.84;6094930;19;20754;-74
2023/11/06 05:53:05;;;;;;;4.20;1.25;;;;;;;8.28;100.00;96843.09;6096728;19;20010;-74
2023/11/06 05:55:06;;;;;;;2.22;1.17;;;;;;;8.29;100.00;96839.13;6095619;19;20543;-74
2023/11/06 05:57:06;;;;;;;2.88;0.95;;;;;;;8.32;100.00;96832.03;6097352;19;20007;-74
2023/11/06 05:59:07;;;;;;;3.45;1.08;;;;;;;8.37;100.00;96845.41;6096734;19;20016;-74
2023/11/06 06:01:07;;;;;;;1.70;1.00;;;;;;;8.34;100.00;96852.47;6097207;19;20690;-74
2023/11/06 06:03:08;;;;;;;1.63;0.85;;;;;;;8.35;100.00;96848.56;6096087;19;20013;-74
2023/11/06 06:05:09;;;;;;;2.83;1.02;;;;;;;8.37;100.00;96857.22;6095350;19;20031;-74
2023/11/06 06:07:09;;;;;;;2.17;1.30;;;;;;;8.30;100.00;96850.94;6096229;19;20007;-74
2023/11/06 06:09:10;;;;;;;1.13;0.93;;;;;;;8.25;100.00;96863.16;6094597;19;20011;-74
2023/11/06 06:11:10;;;;;;;3.13;1.05;;;;;;;8.21;100.00;96867.13;6096237;19;20024;-74
2023/11/06 06:13:11;;;;;;;5.25;1.23;;;;;;;8.20;100.00;96860.84;6096320;19;20109;-74
2023/11/06 06:15:11;;;;;;;4.05;1.45;;;;;;;8.28;100.00;96876.16;6095071;19;20025;-74
2023/11/06 06:17:11;;;;;;;1.58;1.10;;;;;;;8.29;100.00;96877.72;6094407;19;20003;-74
2023/11/06 06:19:12;;;;;;;3.63;1.10;;;;;;;8.32;100.00;96884.38;6096279;19;20099;-74
2023/11/06 06:21:12;;;;;;;3.88;1.27;;;;;;;8.31;100.00;96883.59;6096225;19;20101;-74
2023/11/06 06:23:12;;;;;;;2.00;1.27;;;;;;;8.29;100.00;96879.69;6096276;19;20007;-74
2023/11/06 06:25:13;;;;;;;2.30;1.30;;;;;;;8.38;100.00;96889.09;6095374;19;20010;-74
2023/11/06 06:27:13;;;;;;;4.55;0.90;;;;;;;8.43;100.00;96891.41;6095759;19;20030;-74
2023/11/06 06:29:14;;;;;;;2.63;1.23;;;;;;;8.49;100.00;96899.28;6099479;19;20010;-74
2023/11/06 06:31:15;;;;;;;1.13;0.80;;;;;;;8.43;100.00;96901.66;6101852;19;20397;-74
2023/11/06 06:33:15;;;;;;;1.90;1.10;;;;;;;8.41;100.00;96909.56;6101046;19;20006;-74
2023/11/06 06:35:15;;;;;;;1.42;1.00;;;;;;;8.36;100.00;96902.50;6100890;19;20010;-74
2023/11/06 06:37:16;;;;;;;2.88;0.90;;;;;;;8.36;100.00;96916.28;6101863;19;20006;-74
2023/11/06 06:39:16;;;;;;;1.90;0.90;;;;;;;8.35;100.00;96922.97;6102558;19;20432;-74
2023/11/06 06:41:16;;;;;;;3.55;0.90;;;;;;;8.37;100.00;96917.84;6103162;19;20438;-74
2023/11/06 06:43:17;;;;;;;2.35;1.00;;;;;;;8.39;100.00;96922.97;6102483;19;20006;-74
2023/11/06 06:45:17;;;;;;;2.28;0.70;;;;;;;8.34;100.00;96942.63;6101334;19;20590;-74
2023/11/06 06:47:18;;;;;;;2.28;1.08;;;;;;;8.36;100.00;96934.78;6103233;19;20333;-74
2023/11/06 06:49:18;;;;;;;1.15;1.00;;;;;;;8.33;100.00;96941.84;6101306;19;20017;-74
2023/11/06 06:51:18;;;;;;;1.80;1.20;;;;;;;8.29;100.00;96929.28;6102690;19;20011;-74
2023/11/06 06:53:19;;;;;;;3.50;2.00;;;;;;;8.32;100.00;96936.72;6102092;19;20019;-74
2023/11/06 06:55:22;;;;;;;1.27;0.90;;;;;;;8.33;100.00;96946.56;6100416;19;20022;-74
2023/11/06 06:57:23;;;;;;;1.73;1.00;;;;;;;8.31;100.00;96946.97;6102020;19;20010;-74
2023/11/06 06:59:26;;;;;;;3.55;1.13;;;;;;;8.32;100.00;96931.22;6101802;19;20014;-74
2023/11/06 07:01:26;;;;;;;1.83;1.08;;;;;;;8.36;100.00;96951.34;6101446;19;20015;-74
2023/11/06 07:03:29;;;;;;;3.00;1.20;;;;;;;8.42;100.00;96953.25;6100158;19;20618;-74
2023/11/06 07:05:29;;;;;;;3.22;1.00;;;;;;;8.46;100.00;96957.97;6098491;19;20381;-74
2023/11/06 07:07:29;;;;;;;1.85;0.88;;;;;;;8.52;100.00;96957.13;6102174;19;20337;-74
2023/11/06 07:09:31;;;;;;;1.15;0.70;;;;;;;8.53;100.00;96955.97;6101614;19;20445;-74
2023/11/06 07:11:32;;;;;;;2.22;0.93;;;;;;;8.49;100.00;96973.69;6102666;19;20038;-74
2023/11/06 07:13:32;;;;;;;4.05;0.90;;;;;;;8.56;100.00;96979.19;6099892;19;20487;-74
2023/11/06 07:15:33;;;;;;;2.80;0.90;;;;;;;8.54;100.00;96979.59;6099779;19;20021;-74
2023/11/06 07:17:33;;;;;;;6.20;1.25;;;;;;;8.55;100.00;96986.66;6100979;19;20014;-74
2023/11/06 07:19:33;;;;;;;6.03;1.30;;;;;;;8.53;100.00;96978.03;6101959;19;20034;-74
2023/11/06 07:21:35;;;;;;;5.53;1.48;;;;;;;8.52;100.00;96992.19;6101247;19;20027;-74
2023/11/06 07:23:35;;;;;;;1.05;0.70;;;;;;;8.51;100.00;96988.66;6102125;19;20513;-74
2023/11/06 07:25:36;;;;;;;2.00;0.77;;;;;;;8.48;100.00;96994.97;6100360;19;20039;-74
2023/11/06 07:27:37;;;;;;;1.38;0.90;;;;;;;8.47;100.00;97003.63;6101876;19;20074;-74
2023/11/06 07:29:37;;;;;;;1.55;1.00;;;;;;;8.49;100.00;97004.81;6100731;19;20013;-74
2023/11/06 07:31:37;;;;;;;2.80;1.20;;;;;;;8.53;100.00;97007.56;6101252;19;20015;-74
2023/11/06 07:33:38;;;;;;;4.53;1.42;;;;;;;8.47;100.00;97009.94;6101381;19;20486;-74
2023/11/06 07:35:38;;;;;;;2.70;1.40;;;;;;;8.54;100.00;97011.88;6099071;19;20003;-74
2023/11/06 07:37:38;;;;;;;5.15;1.35;;;;;;;8.54;100.00;97026.44;6101220;19;20007;-74
2023/11/06 07:39:39;;;;;;;2.55;1.08;;;;;;;8.54;100.00;97018.19;6101431;19;20648;-75
2023/11/06 07:41:39;;;;;;;2.35;1.08;;;;;;;8.54;100.00;97026.44;6100257;19;20018;-74
2023/11/06 07:43:39;;;;;;;3.72;1.40;;;;;;;8.58;100.00;97041.00;6102145;19;20017;-74
2023/11/06 07:45:40;;;;;;;1.90;1.00;;;;;;;8.64;100.00;97038.63;6099580;19;20066;-74
2023/11/06 07:47:40;;;;;;;3.85;1.30;;;;;;;8.68;100.00;97028.34;6100966;19;20138;-74
2023/11/06 07:49:41;;;;;;;4.45;1.35;;;;;;;8.66;100.00;97039.00;6101466;19;20011;-74
2023/11/06 07:51:41;;;;;;;3.60;0.98;;;;;;;8.70;100.00;97045.31;6101101;19;20014;-74
2023/11/06 07:53:42;;;;;;;4.68;1.40;;;;;;;8.74;100.00;97048.81;6100444;19;20018;-74
2023/11/06 07:55:42;;;;;;;5.47;1.73;;;;;;;8.76;100.00;97064.94;6098875;19;20075;-74
2023/11/06 07:57:43;;;;;;;5.65;1.70;;;;;;;8.77;100.00;97048.03;6100678;19;20023;-74
2023/11/06 07:59:43;;;;;;;6.15;1.10;;;;;;;8.83;100.00;97070.44;6100499;19;20455;-74
2023/11/06 08:01:44;;;;;;;4.38;1.23;;;;;;;8.87;100.00;97062.94;6100133;19;20014;-74
2023/11/06 08:03:44;;;;;;;2.17;1.08;;;;;;;8.90;100.00;97067.66;6098499;19;20235;-74
2023/11/06 08:05:45;;;;;;;3.50;1.00;;;;;;;8.95;100.00;97070.78;6099381;19;20010;-74
2023/11/06 08:07:45;;;;;;;2.45;1.20;;;;;;;9.03;100.00;97066.03;6100309;19;20106;-74
2023/11/06 08:09:46;;;;;;;5.22;1.20;;;;;;;9.08;100.00;97082.16;6100492;19;20475;-74
2023/11/06 08:11:46;;;;;;;14.48;3.08;;;;;;;9.11;100.00;97070.31;6100427;19;20495;-74
2023/11/06 08:13:47;;;;;;;2.35;1.23;;;;;;;9.17;100.00;97076.19;6099449;19;20022;-74
2023/11/06 08:15:47;;;;;;;2.92;1.17;;;;;;;9.19;100.00;97077.38;6103037;19;20086;-74
2023/11/06 08:17:48;;;;;;;2.75;1.00;;;;;;;9.25;100.00;97083.25;6106745;19;20002;-74
2023/11/06 08:19:48;;;;;;;5.38;2.10;;;;;;;9.34;100.00;97089.09;6105540;19;20021;-74
2023/11/06 08:21:49;;;;;;;7.07;1.27;;;;;;;9.47;100.00;97094.94;6105500;19;20134;-74
2023/11/06 08:23:49;;;;;;;2.95;1.55;;;;;;;9.56;100.00;97104.34;6106255;19;20577;-74
2023/11/06 08:25:50;;;;;;;1.90;0.90;;;;;;;9.57;100.00;97103.16;6105037;19;20011;-74
2023/11/06 08:27:50;;;;;;;3.35;1.08;;;;;;;9.63;100.00;97105.50;6105667;19;20011;-74
2023/11/06 08:29:52;;;;;;;7.15;1.63;;;;;;;9.73;100.00;97118.44;6104640;19;20470;-74
2023/11/06 08:31:53;;;;;;;3.20;1.40;;;;;;;9.70;100.00;97114.53;6105368;19;20003;-74
2023/11/06 08:33:53;;;;;;;3.75;1.13;;;;;;;9.67;100.00;97114.53;6105603;19;20035;-74
2023/11/06 08:35:53;;;;;;;5.72;1.38;;;;;;;9.61;100.00;97127.22;6102794;19;20017;-74
2023/11/06 08:37:54;;;;;;;4.05;1.70;;;;;;;9.54;100.00;97137.09;6105573;19;20013;-74
2023/11/06 08:39:55;;;;;;;5.47;1.83;;;;;;;9.54;100.00;97142.63;6105198;19;20011;-74
2023/11/06 08:41:55;;;;;;;4.00;1.20;;;;;;;9.44;100.00;97151.75;6105441;19;20010;-74
2023/11/06 08:43:55;;;;;;;9.43;1.85;;;;;;;9.38;100.00;97144.31;6104436;19;20058;-75
2023/11/06 08:45:56;;;;;;;6.60;1.10;;;;;;;9.34;100.00;97141.53;6105684;19;20398;-74
2023/11/06 08:47:57;;;;;;;3.63;1.00;;;;;;;9.35;100.00;97143.13;6105331;19;20019;-74
2023/11/06 08:49:57;;;;;;;4.43;1.42;;;;;;;9.40;100.00;97152.97;6105138;19;20256;-74
2023/11/06 08:51:58;;;;;;;5.07;1.90;;;;;;;9.45;100.00;97153.34;6105938;19;20375;-74
2023/11/06 08:53:58;;;;;;;6.22;2.55;;;;;;;9.37;100.00;97146.28;6104721;19;20014;-74
2023/11/06 08:55:58;;;;;;;4.88;1.45;;;;;;;9.46;100.00;97143.84;6103528;19;20007;-74
2023/11/06 08:57:59;;;;;;;8.02;2.30;;;;;;;9.51;100.00;97148.94;6105552;19;20366;-74
2023/11/06 09:00:01;;;;;;;4.03;1.40;;;;;;;9.56;100.00;97159.56;6104002;19;20011;-74
2023/11/06 09:02:02;;;;;;;3.95;1.42;;;;;;;9.68;100.00;97171.34;6104201;19;20013;-74
2023/11/06 09:04:02;;;;;;;7.78;2.65;;;;;;;9.77;100.00;97163.41;6104302;19;20007;-74
2023/11/06 09:06:03;;;;;;;6.30;1.20;;;;;;;9.80;100.00;97168.13;6103973;19;19999;-74
2023/11/06 09:08:03;;;;;;;5.70;1.17;;;;;;;9.82;100.00;97166.50;6104281;19;19998;-74
2023/11/06 09:10:04;;;;;;;4.07;1.20;;;;;;;9.80;100.00;97168.91;6104951;19;20007;-74
2023/11/06 09:12:05;;;;;;;3.90;1.40;;;;;;;9.87;100.00;97173.59;6104054;19;20014;-74
2023/11/06 09:14:05;;;;;;;4.47;1.92;;;;;;;9.87;100.00;97168.06;6104084;19;20078;-74
2023/11/06 09:16:06;;;;;;;4.50;1.20;;;;;;;9.90;100.00;97180.28;6102032;19;20015;-74
2023/11/06 09:18:07;;;;;;;8.10;3.00;;;;;;;9.93;100.00;97185.00;6104344;19;19994;-74
2023/11/06 09:20:09;;;;;;;7.40;2.63;;;;;;;10.01;100.00;97184.56;6104243;19;20010;-74
2023/11/06 09:22:09;;;;;;;9.07;2.13;;;;;;;10.07;100.00;97193.19;6103381;19;20011;-74
2023/11/06 09:24:10;;;;;;;3.80;1.30;;;;;;;10.11;100.00;97194.75;6104133;19;20007;-74
2023/11/06 09:26:11;;;;;;;5.60;1.92;;;;;;;10.10;100.00;97198.72;6102230;19;20002;-73
2023/11/06 09:28:11;;;;;;;3.80;1.23;;;;;;;10.23;100.00;97195.47;6095811;19;20005;-74